DRI Storm Peak Lab. Weather observations

Data are for 5 minute period ending at time listed.
 Day   Time    Ave.   Ave.  Ave.  Vector  Max.   Total    Baro.    Solar      Aerosol      Ave.  Ultrafine   Snow  
  of    of     Air    Rel.  Wind   Wind   Wind  Precip.   Pres.  Radiation   Aerosol      Ozone   Aerosol    Depth 
Year   Day     Temp.  Hum.  Speed  Dir.   Gust                               Ave.   Max.            Ave.           
2018   (MST)    F      %     mph   deg.    mph    in.      mb.     w/m2         #/cm3      ppbv    #/cm3      in.  
-------------------------------------------------------------------------------------------------------------------
 348   10:35   22.5    54    6.8   220     9.2   999.00    694.8    999.0    999000   999000   999.0    999000   999.0
 348   10:40   22.5    55    7.1   220     9.1   999.00    694.8    999.0    999000   999000   999.0    999000   999.0
 348   10:45   23.0    55    5.2   220     7.8   999.00    694.7    999.0    999000   999000   999.0    999000   999.0
 348   10:50   22.9    54    5.1   220     6.5   999.00    694.6    999.0    999000   999000   999.0    999000   999.0
 348   10:55   23.2    56    5.6   220     7.4   999.00    694.6    999.0    999000   999000   999.0    999000   999.0
 348   11:00   23.6    56    6.7   220     9.2   999.00    694.5    999.0    999000   999000   999.0    999000   999.0
 348   11:05   23.8    54    4.6   220     6.6   999.00    694.5    999.0    999000   999000   999.0    999000   999.0
 348   11:10   24.0    55    5.1   220     7.4   999.00    694.4    999.0    999000   999000   999.0    999000   999.0
 348   11:15   24.2    51    7.2   220    10.4   999.00    694.3    999.0    999000   999000   999.0    999000   999.0
 348   11:20   24.2    49    6.9   220     8.9   999.00    694.3    999.0    999000   999000   999.0    999000   999.0
 348   11:25   24.2    50    6.2   220     7.6   999.00    694.2    999.0    999000   999000   999.0    999000   999.0
 348   11:30   24.3    50    8.2   220    10.6   999.00    694.2    999.0    999000   999000   999.0    999000   999.0
 348   11:35   24.5    51    7.7   220     9.6   999.00    694.1    999.0    999000   999000   999.0    999000   999.0
 348   11:40   24.9    51    6.0   220     9.2   999.00    694.0    999.0    999000   999000   999.0    999000   999.0
 348   11:45   24.6    50    8.8   219    10.9   999.00    694.0    999.0    999000   999000   999.0    999000   999.0
 348   11:50   24.5    50    6.6   219     8.7   999.00    693.9    999.0    999000   999000   999.0    999000   999.0
 348   11:55   24.6    51    7.9   219    10.0   999.00    693.9    999.0    999000   999000   999.0    999000   999.0
 348   12:00   24.5    52    7.2   219     9.8   999.00    693.8    999.0    999000   999000   999.0    999000   999.0
 348   12:05   24.7    52    7.7   219     8.9   999.00    693.8    999.0    999000   999000   999.0    999000   999.0
 348   12:10   24.9    48    7.7   219     9.4   999.00    693.7    999.0    999000   999000   999.0    999000   999.0
 348   12:15   24.9    48    7.3   219     9.2   999.00    693.7    999.0    999000   999000   999.0    999000   999.0
 348   12:20   25.1    46    8.2   219    10.6   999.00    693.6    999.0    999000   999000   999.0    999000   999.0
 348   12:25   25.3    45    8.6   219    10.4   999.00    693.7    999.0    999000   999000   999.0    999000   999.0
 348   12:30   25.1    49    8.1   219    10.0   999.00    693.6    999.0    999000   999000   999.0    999000   999.0
 348   12:35   25.2    45    7.8   219     9.6   999.00    693.6    999.0    999000   999000   999.0    999000   999.0
 348   12:40   25.2    48    8.1   219     9.8   999.00    693.6    999.0    999000   999000   999.0    999000   999.0
 348   12:45   25.3    46    8.8   219    11.1   999.00    693.6    999.0    999000   999000   999.0    999000   999.0
 348   12:50   25.4    50    7.6   219     9.8   999.00    693.6    999.0    999000   999000   999.0    999000   999.0
 348   12:55   25.6    52    6.8   219    10.2   999.00    693.6    999.0    999000   999000   999.0    999000   999.0
 348   13:00   25.7    54    7.1   219     9.6   999.00    693.7    999.0    999000   999000   999.0    999000   999.0
 348   13:05   25.7    48    8.0   219     9.4   999.00    693.6    999.0    999000   999000   999.0    999000   999.0
 348   13:10   26.0    53    5.9   219     8.7   999.00    693.5    999.0    999000   999000   999.0    999000   999.0
 348   13:15   27.1    54    4.7   219     6.8   999.00    693.4    999.0    999000   999000   999.0    999000   999.0
 348   13:20   26.6    54    5.5   219     7.6   999.00    693.5    999.0    999000   999000   999.0    999000   999.0
 348   13:25   26.2    51    6.9   219     8.7   999.00    693.5    999.0    999000   999000   999.0    999000   999.0
 348   13:30   26.2    54    7.0   219     8.1   999.00    693.4    999.0    999000   999000   999.0    999000   999.0
 348   13:35   26.1    52    8.2   219     9.6   999.00    693.4    999.0    999000   999000   999.0    999000   999.0
 348   13:40   26.1    51    8.1   219     9.8   999.00    693.5    999.0    999000   999000   999.0    999000   999.0
 348   13:45   26.0    54    7.7   219     9.4   999.00    693.4    999.0    999000   999000   999.0    999000   999.0
 348   13:50   26.0    54    8.8   219    10.2   999.00    693.4    999.0    999000   999000   999.0    999000   999.0
 348   13:55   26.4    52    7.7   219     8.9   999.00    693.3    999.0    999000   999000   999.0    999000   999.0
 348   14:00   26.8    53    7.4   219     9.8   999.00    693.4    999.0    999000   999000   999.0    999000   999.0
 348   14:05   26.8    52    7.3   219     8.7   999.00    693.3    999.0    999000   999000   999.0    999000   999.0
 348   14:10   27.0    51    7.5   219    10.0   999.00    693.3    999.0    999000   999000   999.0    999000   999.0
 348   14:15   27.0    50    8.5   219    10.4   999.00    693.3    999.0    999000   999000   999.0    999000   999.0
 348   14:20   27.0    48    8.2   219    10.4   999.00    693.3    999.0    999000   999000   999.0    999000   999.0
 348   14:25   27.2    51    7.2   219     9.2   999.00    693.3    999.0    999000   999000   999.0    999000   999.0
 348   14:30   27.7    50    6.5   219     9.6   999.00    693.3    999.0    999000   999000   999.0    999000   999.0
 348   14:35   28.7    50    5.2   219     7.4   999.00    693.2    999.0    999000   999000   999.0    999000   999.0
 348   14:40   29.0    48    6.2   218     8.5   999.00    693.1    999.0    999000   999000   999.0    999000   999.0
 348   14:45   28.8    47    5.6   218     7.8   999.00    693.1    999.0    999000   999000   999.0    999000   999.0
 348   14:50   28.7    47    6.4   218     8.3   999.00    693.1    999.0    999000   999000   999.0    999000   999.0
 348   14:55   28.7    47    7.0   218     8.7   999.00    693.0    999.0    999000   999000   999.0    999000   999.0
 348   15:00   28.1    48    7.1   218     9.8   999.00    693.0    999.0    999000   999000   999.0    999000   999.0
 348   15:05   27.8    51    8.2   218     9.4   999.00    693.1    999.0    999000   999000   999.0    999000   999.0
 348   15:10   27.1    52    8.1   219    10.0   999.00    693.1    999.0    999000   999000   999.0    999000   999.0
 348   15:15   26.8    52    7.7   219     8.7   999.00    693.1    999.0    999000   999000   999.0    999000   999.0
 348   15:20   26.6    52    8.1   218     9.8   999.00    693.0    999.0    999000   999000   999.0    999000   999.0
 348   15:25   26.1    53    8.1   218     9.1   999.00    692.9    999.0    999000   999000   999.0    999000   999.0
 348   15:30   26.1    53    9.2   218    10.4   999.00    692.9    999.0    999000   999000   999.0    999000   999.0
 348   15:35   25.9    53    9.9   218    11.3   999.00    692.9    999.0    999000   999000   999.0    999000   999.0
 348   15:40   26.0    53   10.4   218    12.4   999.00    692.8    999.0    999000   999000   999.0    999000   999.0
 348   15:45   26.2    54   10.7   207    12.2   999.00    692.8    999.0    999000   999000   999.0    999000   999.0
 348   15:50   26.1    51   11.3   204    12.8   999.00    692.8    999.0    999000   999000   999.0    999000   999.0
 348   15:55   26.0    52   10.4   204    13.2   999.00    692.8    999.0    999000   999000   999.0    999000   999.0
 348   16:00   25.9    53   11.0   204    13.2   999.00    692.7    999.0    999000   999000   999.0    999000   999.0
 348   16:05   25.9    55   10.5   204    11.8   999.00    692.7    999.0    999000   999000   999.0    999000   999.0
 348   16:10   26.0    57    9.7   204    11.1   999.00    692.6    999.0    999000   999000   999.0    999000   999.0
 348   16:15   26.1    58    9.3   204    11.7   999.00    692.6    999.0    999000   999000   999.0    999000   999.0
 348   16:20   26.2    59    9.6   204    11.3   999.00    692.6    999.0    999000   999000   999.0    999000   999.0
 348   16:25   26.0    59    9.9   204    13.0   999.00    692.6    999.0    999000   999000   999.0    999000   999.0
 348   16:30   25.9    56   10.3   204    12.0   999.00    692.6    999.0    999000   999000   999.0    999000   999.0
 348   16:35   26.0    54   12.8   204    15.4   999.00    692.6    999.0    999000   999000   999.0    999000   999.0
 348   16:40   26.0    50   13.6   204    16.1   999.00    692.7    999.0    999000   999000   999.0    999000   999.0
 348   16:45   25.7    52   12.5   204    14.8   999.00    692.6    999.0    999000   999000   999.0    999000   999.0
 348   16:50   25.8    49   12.4   204    14.3   999.00    692.6    999.0    999000   999000   999.0    999000   999.0
 348   16:55   25.9    48   12.9   204    15.8   999.00    692.6    999.0    999000   999000   999.0    999000   999.0
 348   17:00   25.6    48   13.5   204    16.7   999.00    692.6    999.0    999000   999000   999.0    999000   999.0
 348   17:05   25.7    48   13.1   204    15.4   999.00    692.6    999.0    999000   999000   999.0    999000   999.0
 348   17:10   25.7    49   13.2   204    15.6   999.00    692.6    999.0    999000   999000   999.0    999000   999.0
 348   17:15   25.7    48   13.1   204    15.4   999.00    692.6    999.0    999000   999000   999.0    999000   999.0
 348   17:20   25.8    48   13.2   204    15.2   999.00    692.6    999.0    999000   999000   999.0    999000   999.0
 348   17:25   25.8    49   12.7   204    14.3   999.00    692.6    999.0    999000   999000   999.0    999000   999.0
 348   17:30   25.9    50   12.7   204    14.1   999.00    692.6    999.0    999000   999000   999.0    999000   999.0
 348   17:35   25.9    48   12.6   204    14.8   999.00    692.5    999.0    999000   999000   999.0    999000   999.0
 348   17:40   25.5    48   11.8   204    14.3   999.00    692.5    999.0    999000   999000   999.0    999000   999.0
 348   17:45   25.4    48   11.2   204    13.0   999.00    692.5    999.0    999000   999000   999.0    999000   999.0
 348   17:50   25.3    49   11.0   204    13.0   999.00    692.4    999.0    999000   999000   999.0    999000   999.0
 348   17:55   25.3    50   11.2   204    13.0   999.00    692.4    999.0    999000   999000   999.0    999000   999.0
 348   18:00   25.6    50   11.8   204    14.1   999.00    692.4    999.0    999000   999000   999.0    999000   999.0
 348   18:05   25.6    50   12.0   204    14.3   999.00    692.4    999.0    999000   999000   999.0    999000   999.0
 348   18:10   25.7    51   13.0   205    16.9   999.00    692.3    999.0    999000   999000   999.0    999000   999.0
 348   18:15   25.9    51   13.7   207    16.3   999.00    692.3    999.0    999000   999000   999.0    999000   999.0
 348   18:20   25.9    51   14.1   210    17.4   999.00    692.3    999.0    999000   999000   999.0    999000   999.0
 348   18:25   25.9    50   13.8   219    18.0   999.00    692.2    999.0    999000   999000   999.0    999000   999.0
 348   18:30   25.7    50   14.3   219    17.1   999.00    692.2    999.0    999000   999000   999.0    999000   999.0
 348   18:35   25.7    50   12.7   219    14.6   999.00    692.2    999.0    999000   999000   999.0    999000   999.0
 348   18:40   25.2    50   12.6   219    14.3   999.00    692.1    999.0    999000   999000   999.0    999000   999.0
 348   18:45   25.1    50   12.3   219    13.3   999.00    692.1    999.0    999000   999000   999.0    999000   999.0
 348   18:50   25.3    50   13.3   219    15.6   999.00    692.1    999.0    999000   999000   999.0    999000   999.0
 348   18:55   25.7    49   13.8   219    17.1   999.00    692.1    999.0    999000   999000   999.0    999000   999.0
 348   19:00   25.7    49   13.6   219    16.5   999.00    692.1    999.0    999000   999000   999.0    999000   999.0
 348   19:05   26.0    48   14.2   219    17.2   999.00    692.1    999.0    999000   999000   999.0    999000   999.0
 348   19:10   25.9    49   14.8   219    17.4   999.00    692.0    999.0    999000   999000   999.0    999000   999.0
 348   19:15   25.9    48   14.7   219    16.9   999.00    692.0    999.0    999000   999000   999.0    999000   999.0
 348   19:20   25.9    48   14.0   219    16.5   999.00    692.0    999.0    999000   999000   999.0    999000   999.0
 348   19:25   25.8    48   13.3   219    16.3   999.00    692.1    999.0    999000   999000   999.0    999000   999.0
 348   19:30   25.7    47   13.8   219    18.5   999.00    692.0    999.0    999000   999000   999.0    999000   999.0
 348   19:35   25.6    47   12.3   219    14.8   999.00    692.0    999.0    999000   999000   999.0    999000   999.0
 348   19:40   25.6    47   13.7   219    15.6   999.00    691.9    999.0    999000   999000   999.0    999000   999.0
 348   19:45   25.8    46   13.5   219    17.6   999.00    691.9    999.0    999000   999000   999.0    999000   999.0
 348   19:50   25.7    46   14.1   219    18.0   999.00    691.8    999.0    999000   999000   999.0    999000   999.0
 348   19:55   25.7    46   13.9   219    18.5   999.00    691.8    999.0    999000   999000   999.0    999000   999.0
 348   20:00   25.5    47   14.4   220    17.4   999.00    691.8    999.0    999000   999000   999.0    999000   999.0
 348   20:05   25.3    47   14.3   220    17.1   999.00    691.8    999.0    999000   999000   999.0    999000   999.0
 348   20:10   25.1    48   14.1   220    16.7   999.00    691.8    999.0    999000   999000   999.0    999000   999.0
 348   20:15   25.4    47   14.1   220    17.4   999.00    691.8    999.0    999000   999000   999.0    999000   999.0
 348   20:20   25.5    46   14.6   219    17.6   999.00    691.8    999.0    999000   999000   999.0    999000   999.0
 348   20:25   25.8    46   15.8   219    18.7   999.00    691.8    999.0    999000   999000   999.0    999000   999.0
 348   20:30   26.0    45   15.7   219    19.1   999.00    691.8    999.0    999000   999000   999.0    999000   999.0
 348   20:35   26.4    44   17.3   219    20.6   999.00    691.8    999.0    999000   999000   999.0    999000   999.0
 348   20:40   26.7    43   17.4   220    20.8   999.00    691.8    999.0    999000   999000   999.0    999000   999.0
 348   20:45   26.2    44   16.5   220    19.3   999.00    691.8    999.0    999000   999000   999.0    999000   999.0
 348   20:50   26.0    45   17.4   220    20.2   999.00    691.8    999.0    999000   999000   999.0    999000   999.0
 348   20:55   26.3    44   17.4   220    20.4   999.00    691.8    999.0    999000   999000   999.0    999000   999.0
 348   21:00   26.2    44   17.0   220    19.3   999.00    691.8    999.0    999000   999000   999.0    999000   999.0
 348   21:05   26.3    43   16.7   220    19.3   999.00    691.8    999.0    999000   999000   999.0    999000   999.0
 348   21:10   26.6    42   17.2   220    19.9   999.00    691.7    999.0    999000   999000   999.0    999000   999.0
 348   21:15   26.7    42   17.0   220    19.9   999.00    691.7    999.0    999000   999000   999.0    999000   999.0
 348   21:20   26.4    43   17.0   220    20.0   999.00    691.6    999.0    999000   999000   999.0    999000   999.0
 348   21:25   26.4    42   17.3   220    19.9   999.00    691.5    999.0    999000   999000   999.0    999000   999.0
 348   21:30   26.6    42   18.1   219    20.8   999.00    691.5    999.0    999000   999000   999.0    999000   999.0
 348   21:35   26.3    43   16.8   219    19.7   999.00    691.5    999.0    999000   999000   999.0    999000   999.0
 348   21:40   26.3    42   18.2   219    22.5   999.00    691.4    999.0    999000   999000   999.0    999000   999.0
 348   21:45   26.1    43   15.7   219    20.2   999.00    691.5    999.0    999000   999000   999.0    999000   999.0
 348   21:50   25.8    44   16.7   220    21.0   999.00    691.4    999.0    999000   999000   999.0    999000   999.0
 348   21:55   25.5    45   15.5   220    19.5   999.00    691.5    999.0    999000   999000   999.0    999000   999.0
 348   22:00   25.1    46   14.9   220    17.2   999.00    691.5    999.0    999000   999000   999.0    999000   999.0
 348   22:05   25.1    46   15.3   220    18.9   999.00    691.5    999.0    999000   999000   999.0    999000   999.0
 348   22:10   25.2    46   14.3   220    18.0   999.00    691.5    999.0    999000   999000   999.0    999000   999.0
 348   22:15   25.1    46   13.7   220    16.1   999.00    691.4    999.0    999000   999000   999.0    999000   999.0
 348   22:20   25.0    46   13.2   220    15.6   999.00    691.4    999.0    999000   999000   999.0    999000   999.0
 348   22:25   24.6    47   12.0   220    14.1   999.00    691.4    999.0    999000   999000   999.0    999000   999.0
 348   22:30   24.5    46   12.0   220    15.8   999.00    691.4    999.0    999000   999000   999.0    999000   999.0
 348   22:35   24.5    46   11.2   220    14.4   999.00    691.4    999.0    999000   999000   999.0    999000   999.0
 348   22:40   24.7    46   10.9   219    13.5   999.00    691.4    999.0    999000   999000   999.0    999000   999.0
 348   22:45   24.5    46   11.3   220    13.2   999.00    691.4    999.0    999000   999000   999.0    999000   999.0
 348   22:50   24.4    45   11.9   220    15.2   999.00    691.3    999.0    999000   999000   999.0    999000   999.0
 348   22:55   24.4    45   11.1   220    13.5   999.00    691.2    999.0    999000   999000   999.0    999000   999.0
 348   23:00   24.4    45   10.7   220    12.4   999.00    691.2    999.0    999000   999000   999.0    999000   999.0
 348   23:05   24.3    45   10.7   219    12.8   999.00    691.2    999.0    999000   999000   999.0    999000   999.0
 348   23:10   24.1    46   11.3   220    13.2   999.00    691.2    999.0    999000   999000   999.0    999000   999.0
 348   23:15   23.7    47   11.8   220    13.9   999.00    691.2    999.0    999000   999000   999.0    999000   999.0
 348   23:20   23.4    47   11.9   220    14.1   999.00    691.2    999.0    999000   999000   999.0    999000   999.0
 348   23:25   23.7    46   12.6   220    14.4   999.00    691.2    999.0    999000   999000   999.0    999000   999.0
 348   23:30   23.4    47   11.6   220    13.5   999.00    691.1    999.0    999000   999000   999.0    999000   999.0
 348   23:35   23.5    47   12.0   220    13.3   999.00    691.2    999.0    999000   999000   999.0    999000   999.0
 348   23:40   23.2    47   11.6   220    13.0   999.00    691.1    999.0    999000   999000   999.0    999000   999.0
 348   23:45   23.1    48   11.7   220    13.2   999.00    691.1    999.0    999000   999000   999.0    999000   999.0
 348   23:50   22.9    48   12.1   220    13.9   999.00    691.0    999.0    999000   999000   999.0    999000   999.0
 348   23:55   22.9    48   12.9   220    14.8   999.00    691.0    999.0    999000   999000   999.0    999000   999.0
 349    0:00   22.6    48   12.8   220    14.8   999.00    691.0    999.0    999000   999000   999.0    999000   999.0
 349    0:05   22.5    48   12.1   220    14.4   999.00    690.9    999.0    999000   999000   999.0    999000   999.0
 349    0:10   22.5    48   13.2   220    14.6   999.00    690.9    999.0    999000   999000   999.0    999000   999.0
 349    0:15   22.2    48   12.4   220    14.1   999.00    690.9    999.0    999000   999000   999.0    999000   999.0
 349    0:20   21.9    49   13.3   221    15.0   999.00    690.8    999.0    999000   999000   999.0    999000   999.0
 349    0:25   21.8    49   13.3   221    16.5   999.00    690.8    999.0    999000   999000   999.0    999000   999.0
 349    0:30   21.8    49   13.4   222    15.6   999.00    690.8    999.0    999000   999000   999.0    999000   999.0
 349    0:35   21.7    49   13.1   222    15.2   999.00    690.8    999.0    999000   999000   999.0    999000   999.0
 349    0:40   21.7    49   13.4   222    16.9   999.00    690.8    999.0    999000   999000   999.0    999000   999.0
 349    0:45   21.6    49   12.8   222    15.8   999.00    690.8    999.0    999000   999000   999.0    999000   999.0
 349    0:50   21.6    49   12.9   222    16.1   999.00    690.8    999.0    999000   999000   999.0    999000   999.0
 349    0:55   21.7    49   12.8   223    15.6   999.00    690.8    999.0    999000   999000   999.0    999000   999.0
 349    1:00   21.6    49   12.8   227    15.4   999.00    690.8    999.0    999000   999000   999.0    999000   999.0
 349    1:05   21.7    48   13.1   233    18.0   999.00    690.8    999.0    999000   999000   999.0    999000   999.0
 349    1:10   21.7    48   14.0   233    18.7   999.00    690.8    999.0    999000   999000   999.0    999000   999.0
 349    1:15   21.8    48   13.7   233    17.1   999.00    690.7    999.0    999000   999000   999.0    999000   999.0
 349    1:20   22.0    46   15.1   232    18.2   999.00    690.7    999.0    999000   999000   999.0    999000   999.0
 349    1:25   22.4    45   15.9   232    21.1   999.00    690.7    999.0    999000   999000   999.0    999000   999.0
 349    1:30   23.0    43   15.7   225    19.5   999.00    690.8    999.0    999000   999000   999.0    999000   999.0
 349    1:35   22.6    44   15.1   225    17.2   999.00    690.8    999.0    999000   999000   999.0    999000   999.0
 349    1:40   22.4    45   15.1   226    19.9   999.00    690.8    999.0    999000   999000   999.0    999000   999.0
 349    1:45   23.2    42   18.7   230    23.2   999.00    690.9    999.0    999000   999000   999.0    999000   999.0
 349    1:50   23.6    40   20.4   233    25.1   999.00    690.9    999.0    999000   999000   999.0    999000   999.0
 349    1:55   24.2    38   21.2   234    25.2   999.00    691.0    999.0    999000   999000   999.0    999000   999.0
 349    2:00   24.3    37   21.4   236    26.2   999.00    691.0    999.0    999000   999000   999.0    999000   999.0
 349    2:05   24.3    37   20.6   237    25.2   999.00    691.0    999.0    999000   999000   999.0    999000   999.0
 349    2:10   23.9    38   18.7   237    24.1   999.00    691.1    999.0    999000   999000   999.0    999000   999.0
 349    2:15   23.4    40   18.0   236    22.5   999.00    691.1    999.0    999000   999000   999.0    999000   999.0
 349    2:20   23.4    40   17.7   239    21.5   999.00    691.1    999.0    999000   999000   999.0    999000   999.0
 349    2:25   23.0    41   16.1   241    19.1   999.00    691.1    999.0    999000   999000   999.0    999000   999.0
 349    2:30   22.9    41   14.3   242    17.6   999.00    691.1    999.0    999000   999000   999.0    999000   999.0
 349    2:35   22.6    42   14.3   242    16.9   999.00    691.1    999.0    999000   999000   999.0    999000   999.0
 349    2:40   22.6    42   14.8   240    19.9   999.00    691.1    999.0    999000   999000   999.0    999000   999.0
 349    2:45   22.7    41   15.4   238    19.5   999.00    691.0    999.0    999000   999000   999.0    999000   999.0
 349    2:50   22.8    40   15.4   236    18.5   999.00    691.0    999.0    999000   999000   999.0    999000   999.0
 349    2:55   22.3    42   14.1   235    17.1   999.00    691.0    999.0    999000   999000   999.0    999000   999.0
 349    3:00   22.4    42   15.9   233    19.7   999.00    690.9    999.0    999000   999000   999.0    999000   999.0
 349    3:05   22.6    41   16.6   232    20.8   999.00    690.9    999.0    999000   999000   999.0    999000   999.0
 349    3:10   22.7    41   15.9   230    18.7   999.00    690.9    999.0    999000   999000   999.0    999000   999.0
 349    3:15   22.4    42   15.5   234    19.7   999.00    690.9    999.0    999000   999000   999.0    999000   999.0
 349    3:20   22.1    43   13.8   236    18.9   999.00    690.9    999.0    999000   999000   999.0    999000   999.0
 349    3:25   22.0    43   12.7   239    16.1   999.00    690.9    999.0    999000   999000   999.0    999000   999.0
 349    3:30   21.5    45   11.3   244    13.0   999.00    691.0    999.0    999000   999000   999.0    999000   999.0
 349    3:35   21.1    47    8.7   252    10.7   999.00    691.0    999.0    999000   999000   999.0    999000   999.0
 349    3:40   20.7    48    8.0   255     9.8   999.00    691.0    999.0    999000   999000   999.0    999000   999.0
 349    3:45   20.3    50    8.1   259     9.8   999.00    690.9    999.0    999000   999000   999.0    999000   999.0
 349    3:50   20.2    50    8.6   260    10.2   999.00    690.9    999.0    999000   999000   999.0    999000   999.0
 349    3:55   20.1    50    8.6   260    10.7   999.00    690.8    999.0    999000   999000   999.0    999000   999.0
 349    4:00   19.9    50    9.3   265    11.7   999.00    690.8    999.0    999000   999000   999.0    999000   999.0
 349    4:05   19.9    51    9.7   268    12.0   999.00    690.8    999.0    999000   999000   999.0    999000   999.0
 349    4:10   19.2    53    8.7   270    12.0   999.00    690.7    999.0    999000   999000   999.0    999000   999.0
 349    4:15   19.0    54    9.0   270    11.3   999.00    690.7    999.0    999000   999000   999.0    999000   999.0
 349    4:20   18.8    54    9.1   269    12.0   999.00    690.7    999.0    999000   999000   999.0    999000   999.0
 349    4:25   19.5    52   10.9   263    13.3   999.00    690.7    999.0    999000   999000   999.0    999000   999.0
 349    4:30   19.9    50   10.6   263    13.7   999.00    690.7    999.0    999000   999000   999.0    999000   999.0
 349    4:35   20.1    49   12.2   261    14.8   999.00    690.7    999.0    999000   999000   999.0    999000   999.0
 349    4:40   20.2    48   13.2   256    18.5   999.00    690.6    999.0    999000   999000   999.0    999000   999.0
 349    4:45   20.1    49   11.0   263    14.1   999.00    690.7    999.0    999000   999000   999.0    999000   999.0
 349    4:50   19.8    50   10.2   265    13.2   999.00    690.7    999.0    999000   999000   999.0    999000   999.0
 349    4:55   19.5    51    9.7   268    14.6   999.00    690.7    999.0    999000   999000   999.0    999000   999.0
 349    5:00   18.8    54    9.5   273    12.4   999.00    690.6    999.0    999000   999000   999.0    999000   999.0
 349    5:05   19.3    52   11.6   266    16.3   999.00    690.6    999.0    999000   999000   999.0    999000   999.0
 349    5:10   20.2    48   13.5   259    18.7   999.00    690.6    999.0    999000   999000   999.0    999000   999.0
 349    5:15   20.1    48   13.4   255    19.1   999.00    690.6    999.0    999000   999000   999.0    999000   999.0
 349    5:20   20.2    48   13.6   255    16.5   999.00    690.6    999.0    999000   999000   999.0    999000   999.0
 349    5:25   20.0    48   14.5   255    18.4   999.00    690.6    999.0    999000   999000   999.0    999000   999.0
 349    5:30   19.8    49   14.9   252    18.2   999.00    690.6    999.0    999000   999000   999.0    999000   999.0
 349    5:35   19.7    49   14.8   252    17.6   999.00    690.6    999.0    999000   999000   999.0    999000   999.0
 349    5:40   19.8    49   15.9   245    18.9   999.00    690.6    999.0    999000   999000   999.0    999000   999.0
 349    5:45   20.1    48   16.2   241    18.5   999.00    690.7    999.0    999000   999000   999.0    999000   999.0
 349    5:50   20.3    48   18.4   232    23.8   999.00    690.5    999.0    999000   999000   999.0    999000   999.0
 349    5:55   21.2    46   21.6   224    25.8   999.00    690.5    999.0    999000   999000   999.0    999000   999.0
 349    6:00   21.7    45   22.8   218    27.1   999.00    690.4    999.0    999000   999000   999.0    999000   999.0
 349    6:05   21.8    45   23.6   214    27.1   999.00    690.3    999.0    999000   999000   999.0    999000   999.0
 349    6:10   21.9    44   23.1   211    26.9   999.00    690.3    999.0    999000   999000   999.0    999000   999.0
 349    6:15   21.5    45   21.5   213    25.6   999.00    690.4    999.0    999000   999000   999.0    999000   999.0
 349    6:20   21.4    45   20.8   217    25.6   999.00    690.5    999.0    999000   999000   999.0    999000   999.0
 349    6:25   21.4    46   21.1   223    25.8   999.00    690.5    999.0    999000   999000   999.0    999000   999.0
 349    6:30   21.3    46   18.9   230    23.6   999.00    690.5    999.0    999000   999000   999.0    999000   999.0
 349    6:35   21.2    47   18.6   230    23.0   999.00    690.5    999.0    999000   999000   999.0    999000   999.0
 349    6:40   21.0    47   15.1   228    17.6   999.00    690.6    999.0    999000   999000   999.0    999000   999.0
 349    6:45   20.8    48   15.3   231    17.6   999.00    690.6    999.0    999000   999000   999.0    999000   999.0
 349    6:50   20.7    48   14.2   232    17.2   999.00    690.7    999.0    999000   999000   999.0    999000   999.0
 349    6:55   20.6    48   14.4   229    17.2   999.00    690.6    999.0    999000   999000   999.0    999000   999.0
 349    7:00   20.9    48   17.0   226    19.7   999.00    690.6    999.0    999000   999000   999.0    999000   999.0
 349    7:05   21.2    48   17.8   224    20.4   999.00    690.6    999.0    999000   999000   999.0    999000   999.0
 349    7:10   21.4    49   18.8   223    21.3   999.00    690.6    999.0    999000   999000   999.0    999000   999.0
 349    7:15   21.7    51   19.7   224    24.0   999.00    690.6    999.0    999000   999000   999.0    999000   999.0
 349    7:20   21.8    52   19.2   221    22.3   999.00    690.6    999.0    999000   999000   999.0    999000   999.0
 349    7:25   21.8    54   19.2   224    22.8   999.00    690.6    999.0    999000   999000   999.0    999000   999.0
 349    7:30   21.9    56   18.9   225    22.1   999.00    690.6    999.0    999000   999000   999.0    999000   999.0
 349    7:35   21.8    57   18.3   225    22.3   999.00    690.6    999.0    999000   999000   999.0    999000   999.0
 349    7:40   22.1    58   18.4   224    20.8   999.00    690.5    999.0    999000   999000   999.0    999000   999.0
 349    7:45   22.2    60   17.3   225    19.9   999.00    690.5    999.0    999000   999000   999.0    999000   999.0
 349    7:50   22.2    60   17.1   226    19.9   999.00    690.6    999.0    999000   999000   999.0    999000   999.0
 349    7:55   21.9    60   16.1   230    18.5   999.00    690.7    999.0    999000   999000   999.0    999000   999.0
 349    8:00   21.9    60   15.1   232    18.5   999.00    690.7    999.0    999000   999000   999.0    999000   999.0
 349    8:05   21.9    59   14.0   231    17.4   999.00    690.7    999.0    999000   999000   999.0    999000   999.0
 349    8:10   21.8    58   14.3   232    16.5   999.00    690.7    999.0    999000   999000   999.0    999000   999.0
 349    8:15   21.6    58   16.1   226    18.4   999.00    690.6    999.0    999000   999000   999.0    999000   999.0
 349    8:20   21.8    58   15.6   229    19.5   999.00    690.6    999.0    999000   999000   999.0    999000   999.0
 349    8:25   21.5    59   13.8   237    16.1   999.00    690.7    999.0    999000   999000   999.0    999000   999.0
 349    8:30   21.4    58   14.7   234    17.4   999.00    690.7    999.0    999000   999000   999.0    999000   999.0
 349    8:35   21.4    58   14.4   233    17.1   999.00    690.7    999.0    999000   999000   999.0    999000   999.0
 349    8:40   21.6    58   15.2   235    16.7   999.00    690.7    999.0    999000   999000   999.0    999000   999.0
 349    8:45   21.5    57   14.2   236    16.1   999.00    690.9    999.0    999000   999000   999.0    999000   999.0
 349    8:50   21.3    58   15.3   234    18.0   999.00    690.8    999.0    999000   999000   999.0    999000   999.0
 349    8:55   21.6    58   15.2   234    17.2   999.00    690.9    999.0    999000   999000   999.0    999000   999.0
 349    9:00   21.7    58   16.4   234    20.6   999.00    690.9    999.0    999000   999000   999.0    999000   999.0
 349    9:05   21.7    58   14.6   242    18.9   999.00    691.0    999.0    999000   999000   999.0    999000   999.0
 349    9:10   21.3    58   15.2   242    19.3   999.00    690.9    999.0    999000   999000   999.0    999000   999.0
 349    9:15   21.9    59   17.0   237    21.0   999.00    690.9    999.0    999000   999000   999.0    999000   999.0
 349    9:20   22.2    61   17.8   236    21.9   999.00    690.9    999.0    999000   999000   999.0    999000   999.0
 349    9:25   22.5    60   17.6   233    23.6   999.00    690.9    999.0    999000   999000   999.0    999000   999.0
 349    9:30   22.6    61   19.4   235    24.3   999.00    691.0    999.0    999000   999000   999.0    999000   999.0
 349    9:35   22.6    61   17.0   234    21.1   999.00    691.1    999.0    999000   999000   999.0    999000   999.0
 349    9:40   22.5    62   16.7   237    20.6   999.00    691.2    999.0    999000   999000   999.0    999000   999.0
 349    9:45   22.4    61   15.9   240    19.1   999.00    691.3    999.0    999000   999000   999.0    999000   999.0
 349    9:50   22.1    59   13.4   239    16.5   999.00    691.2    999.0    999000   999000   999.0    999000   999.0
 349    9:55   22.0    62   14.5   236    18.9   999.00    691.1    999.0    999000   999000   999.0    999000   999.0
 349   10:00   22.5    65   16.5   244    21.0   999.00    691.3    999.0    999000   999000   999.0    999000   999.0
 349   10:05   22.5    62   13.9   250    18.2   999.00    691.4    999.0    999000   999000   999.0    999000   999.0
 349   10:10   22.5    61   10.4   253    13.9   999.00    691.4    999.0    999000   999000   999.0    999000   999.0
 349   10:15   22.3    59    9.2   253    12.0   999.00    691.5    999.0    999000   999000   999.0    999000   999.0
 349   10:20   21.9    56    9.1   253    11.1   999.00    691.6    999.0    999000   999000   999.0    999000   999.0
 349   10:25   21.9    56    9.3   253    12.6   999.00    691.6    999.0    999000   999000   999.0    999000   999.0
 349   10:30   21.8    59   10.2   253    14.3   999.00    691.6    999.0    999000   999000   999.0    999000   999.0

Return to DRI Storm Peak Lab. graphs page.


Western Regional Climate Center,wrcc@dri.edu